罗盘
风向 的 风向 180° P. Meadows Coastal Station Automatic Weather Reporting System 8/26
风: 3 kt, 1 beaufort

1 kt

3 kt
改变
0 1.000 2.000 3.000 4.000 5.000
没有云
METAR KORS 250555Z AUTO 18003KT 10SM CLR 13/12 A3022 RMK AO2

METAR P. Meadows Coastal Station Automatic Weather Reporting System - CWMM

P. Meadows Coastal Station Automatic Weather Reporting System是素里,加拿大中的未知。 该机场有一条跑道: 8/26. 该领域的国际民航组织标志是CWMM.

这份报告是针对2022年9月24日 10:55 下午, 当地时间在Orcas Island Airport进行的。

机场观察

风向为180°,速度为3 kt。

可见度为10 mi。

有没有云。 没有观察到天花板。

温度和风寒是55 °F。 露点为54 °F,相对湿度为94%。 海平面上的气压为30,22 inHg (QNH)。

白天

今天,太阳从7:02 上午升起,在7:02 下午降落。 这适用于P. Meadows Coastal Station Automatic Weather Reporting System,世界夏令时可能有所不同。 当地时间与世界标准时间之间的时差为-7 小时。 夏令时目前正在进行中。

公司介绍

我们没有关于这个机场的公司信息。

体会

到Vliegles.nl去找飞行课程,跳伞和其他飞行体验。 浏览页面,了解P. Meadows Coastal Station Automatic Weather Reporting System附近所有可用的活动。 你也可以使用搜索功能来寻找你所在地附近的特定飞行课程、跳伞或其他飞行体验。

跑道

Id 标题 侧风 逆风 侧风 %
8/26 080°-260° 3 kt 98 %

逆风成分最大的方向会被突出显示,并用于横风计算。 这并不一定意味着这个方向在使用。

乌云

- CLR 没有云

温度 & 天气

温度 55 °F
露点 54 °F
相对湿度 94%
Kp-index 0  

评论

AO2自动气象站,可确定降水类型

白天

日出
7:03 上午 (7h 52m)
中午
1:03 下午
日落
7:03 下午

小工具

你想在你的网站上有一个关于P. Meadows Coastal Station Automatic Weather Reporting System的当前航空天气(METAR)的小部件吗?

</> 显示HTML代码

我们和第三方通过cookies跟踪您在我们网站上的上网行为。如果您继续,我们认为您同意我们的cookie政策。 了解更多